Webcam more information Webcam


avvertimento per Temporali more information blitzortung!


avvertimento per Pioggia more information rain snow radar


altri nostri siti meteo:

RISCHIO INCENDIRischio incendi

Pomeziameteo 1Sito sul meteo

Pomeziameteo DashboardSito sul meteo

Caput FrigorisSito sul meteo

BarcellonameteoSito sul meteo

MeteoipassiSito sul meteo

TortoretometeolidoSito sul meteo

CastelnuovovomanometeoSito sul meteo

MeteogonzagaSito sul meteo

MeteonetworkInvio dai a Meteonetwork



Temporali Da: 24-10-2019 11:00 Fino a: 19:59 Avvertimento per: Temporali Livello: Arancio info button
Pioggia Da: 24-10-2019 11:00 Fino a: 19:59 Avvertimento per: Pioggia Livello: Arancio info button

Select another period ( hide this area )

Unita Periodo Custom range Directly to
Metrico Inglese Entrambi
Quotidiano Settimanale mensile Annuale
use both date-selectors for a custom range
previous Day
With this date

WeatherUnderground graphs for this period ( click here )


Quotidiano Riepilogo per Giovedi 24 Ottobre 2019
Tempo Temp. ( °C ) Dew pt. ( °C ) Vento ( km/h ) da Raffica ( km/h ) Pressione ( hPa ) Humid.( % ) Rainrate ( cm )
Max20,3 12,2 14,5 SE ( 48/208 ) 22,5 1016,5 72 -
Media18,3 10,5 4,0 SE #10/52 11,0 1015,5 61 -
Min16,2 7,8 -   3,2 1014,4 45 -
Quotidiano Tabular details for Giovedi 24 Ottobre 2019
Tempo Temp. ( °C ) Dew pt. ( °C ) Vento ( km/h ) da Raffica ( km/h ) Pressione ( hPa ) Humid.( % ) Rainrate ( cm )
00:00 18,2 11,9 1,6 NE 8,0 1015,8 67 -
00:05 17,9 11,9 3,2 NE 6,4 1016,1 68 -
00:10 17,9 11,9 3,2 SE 9,7 1016,1 68 -
00:15 18,1 12,0 4,8 SE 12,9 1016,5 68 -
00:20 18,0 12,0   calma 6,4 1016,5 68 -
00:25 17,8 12,0   calma 4,8 1016,5 69 -
00:30 17,6 12,0 3,2 S 8,0 1016,5 70 -
00:35 17,2 11,9 3,2 S 6,4 1016,5 71 -
00:40 17,0 11,7 4,8 SE 9,7 1016,5 71 -
00:45 17,1 11,9 3,2 SE 8,0 1016,1 72 -
00:50 17,3 11,9 1,6 SE 11,3 1016,1 71 -
00:55 17,4 12,1 3,2 SE 6,4 1016,1 71 -
01:00 17,3 12,0 6,4 SE 11,3 1016,1 71 -
01:05 17,5 12,2 4,8 SE 9,7 1016,1 71 -
01:10 17,4 12,1 6,4 NE 11,3 1015,8 71 -
01:15 17,6 12,0 6,4 SE 12,9 1015,8 70 -
01:20 18,3 11,8 4,8 SE 12,9 1015,8 66 -
01:25 18,6 11,4 8,0 S 8,0 1015,8 63 -
01:30 19,5 11,0 1,6 S 8,0 1015,8 58 -
01:35 19,6 11,3 1,6 S 3,2 1015,8 59 -
01:40 19,7 11,2 3,2 S 4,8 1015,5 58 -
01:45 19,6 10,3 1,6 SW 6,4 1015,5 55 -
01:50 19,6 8,9 4,8 S 16,1 1015,5 50 -
01:55 20,3 9,2 4,8 SW 14,5 1015,5 49 -
02:00 20,2 10,2 1,6 SE 8,0 1015,5 53 -
02:05 19,3 9,4 6,4 NE 8,0 1015,5 53 -
02:10 19,1 9,5 4,8 NE 9,7 1015,5 54 -
02:15 18,7 8,9 4,8 NE 8,0 1015,1 53 -
02:20 18,7 8,3 3,2 Nord 12,9 1015,1 51 -
02:25 19,3 8,3 4,8 West 11,3 1015,1 49 -
02:30 19,5 8,2 4,8 NE 8,0 1015,1 48 -
02:35 19,7 8,0 1,6 S 9,7 1015,1 47 -
02:40 19,9 7,9 6,4 SE 19,3 1014,8 46 -
02:45 20,1 7,8 4,8 NE 22,5 1014,8 45 -
02:50 20,3 7,9 8,0 NO 16,1 1015,1 45 -
02:55 19,9 8,8 1,6 Nord 14,5 1015,1 49 -
03:00 19,1 8,9 4,8 NO 14,5 1014,8 52 -
03:05 19,1 8,4   calma 20,9 1014,8 50 -
03:10 18,8 10,1   calma 14,5 1014,8 57 -
03:15 18,1 9,9 9,7 SE 9,7 1014,8 59 -
03:20 17,8 10,1 6,4 NE 17,7 1014,4 61 -
03:25 17,5 10,3 8,0 NE 14,5 1014,4 63 -
03:30 17,1 10,4 14,5 NNW 19,3 1014,8 65 -
03:35 17,0 10,8 6,4 NNW 19,3 1014,8 67 -
03:40 17,2 10,5   calma 12,9 1015,1 65 -
03:45 17,3 10,6 3,2 West 14,5 1015,1 65 -
03:50 17,2 10,5   calma 9,7 1015,1 65 -
03:55 16,9 10,5 1,6 SE 3,2 1015,1 66 -
04:00 16,9 10,4 3,2 SE 9,7 1015,1 66 -
04:05 16,6 10,7 6,4 NE 8,0 1015,5 68 -
04:10 16,3 10,8 1,6 NE 8,0 1015,5 70 -
04:15 16,2 10,7 3,2 NE 12,9 1015,5 70 -
Quotidiano Riepilogo per Giovedi 24 Ottobre 2019
Tempo Temp. ( °C ) Dew pt. ( °C ) Vento ( km/h ) da Raffica ( km/h ) Pressione ( hPa ) Humid.( % ) Rainrate ( cm )
Max20,3 12,2 14,5 SE ( 48/208 ) 22,5 1016,5 72 -
Media18,3 10,5 4,0 SE #10/52 11,0 1015,5 61 -
Min16,2 7,8 -   3,2 1014,4 45 -
Quotidiano Tabular details for Giovedi 24 Ottobre 2019
Tempo Temp. ( °C ) Dew pt. ( °C ) Vento ( km/h ) da Raffica ( km/h ) Pressione ( hPa ) Humid.( % ) Rainrate ( cm )
00:00 18,2 11,9 1,6 NE 8,0 1015,8 67 -
00:05 17,9 11,9 3,2 NE 6,4 1016,1 68 -
00:10 17,9 11,9 3,2 SE 9,7 1016,1 68 -
00:15 18,1 12,0 4,8 SE 12,9 1016,5 68 -
00:20 18,0 12,0   calma 6,4 1016,5 68 -
00:25 17,8 12,0   calma 4,8 1016,5 69 -
00:30 17,6 12,0 3,2 S 8,0 1016,5 70 -
00:35 17,2 11,9 3,2 S 6,4 1016,5 71 -
00:40 17,0 11,7 4,8 SE 9,7 1016,5 71 -
00:45 17,1 11,9 3,2 SE 8,0 1016,1 72 -
00:50 17,3 11,9 1,6 SE 11,3 1016,1 71 -
00:55 17,4 12,1 3,2 SE 6,4 1016,1 71 -
01:00 17,3 12,0 6,4 SE 11,3 1016,1 71 -
01:05 17,5 12,2 4,8 SE 9,7 1016,1 71 -
01:10 17,4 12,1 6,4 NE 11,3 1015,8 71 -
01:15 17,6 12,0 6,4 SE 12,9 1015,8 70 -
01:20 18,3 11,8 4,8 SE 12,9 1015,8 66 -
01:25 18,6 11,4 8,0 S 8,0 1015,8 63 -
01:30 19,5 11,0 1,6 S 8,0 1015,8 58 -
01:35 19,6 11,3 1,6 S 3,2 1015,8 59 -
01:40 19,7 11,2 3,2 S 4,8 1015,5 58 -
01:45 19,6 10,3 1,6 SW 6,4 1015,5 55 -
01:50 19,6 8,9 4,8 S 16,1 1015,5 50 -
01:55 20,3 9,2 4,8 SW 14,5 1015,5 49 -
02:00 20,2 10,2 1,6 SE 8,0 1015,5 53 -
02:05 19,3 9,4 6,4 NE 8,0 1015,5 53 -
02:10 19,1 9,5 4,8 NE 9,7 1015,5 54 -
02:15 18,7 8,9 4,8 NE 8,0 1015,1 53 -
02:20 18,7 8,3 3,2 Nord 12,9 1015,1 51 -
02:25 19,3 8,3 4,8 West 11,3 1015,1 49 -
02:30 19,5 8,2 4,8 NE 8,0 1015,1 48 -
02:35 19,7 8,0 1,6 S 9,7 1015,1 47 -
02:40 19,9 7,9 6,4 SE 19,3 1014,8 46 -
02:45 20,1 7,8 4,8 NE 22,5 1014,8 45 -
02:50 20,3 7,9 8,0 NO 16,1 1015,1 45 -
02:55 19,9 8,8 1,6 Nord 14,5 1015,1 49 -
03:00 19,1 8,9 4,8 NO 14,5 1014,8 52 -
03:05 19,1 8,4   calma 20,9 1014,8 50 -
03:10 18,8 10,1   calma 14,5 1014,8 57 -
03:15 18,1 9,9 9,7 SE 9,7 1014,8 59 -
03:20 17,8 10,1 6,4 NE 17,7 1014,4 61 -
03:25 17,5 10,3 8,0 NE 14,5 1014,4 63 -
03:30 17,1 10,4 14,5 NNW 19,3 1014,8 65 -
03:35 17,0 10,8 6,4 NNW 19,3 1014,8 67 -
03:40 17,2 10,5   calma 12,9 1015,1 65 -
03:45 17,3 10,6 3,2 West 14,5 1015,1 65 -
03:50 17,2 10,5   calma 9,7 1015,1 65 -
03:55 16,9 10,5 1,6 SE 3,2 1015,1 66 -
04:00 16,9 10,4 3,2 SE 9,7 1015,1 66 -
04:05 16,6 10,7 6,4 NE 8,0 1015,5 68 -
04:10 16,3 10,8 1,6 NE 8,0 1015,5 70 -
04:15 16,2 10,7 3,2 NE 12,9 1015,5 70 -

Download your copy of this data-set  here

Our weather-data as stored at Weather Underground. Script sviluppato da Jim McMurry. Adattato per il modello da Leuven-Template.eu

Strumentazione usata:

Stazione meteo
Davis VP2

Programma gestore dati meteo
WVIEW

Server per i dati meteo
WDS-5

Davis VP2

WVIEW

WDS-5